Andes — 5BFM3 — position and weather

sailwx.info

Track history (hours):
 
Tides and Currents Weather Stations Pressure Air Temp Water Temp Dewpoint Dewpoint Depression Visibility Wind Speed Wind Dir Waves Ship Positions

Andes

Last reported at 2014-Jul-27 11:31 UTC. Time now 2014-Jul-29 08:49 UTC.
Position N 29°21' W 094°44'.

; draft 11.7 m.

Type: Ship. MMSI: 209394000.

Date/timePositionNaut miles runAvg speedWind from/ knotsBaromVisibWave heightAir tempDewpointWater temp
2014-Jul-27 11:31N 29°21' W 094°44'8 8.8
2014-Jul-27 10:33N 29°27' W 094°51'1010.4
2014-Jul-27 09:33N 29°36' W 094°57'9 8.9
2014-Jul-27 08:33N 29°44' W 095°01'5 5.4
2014-Jul-27 07:33N 29°44' W 095°08'0 0.4
2014-Jul-27 06:33N 29°44' W 095°08'0 0.0
2014-Jul-27 05:33N 29°44' W 095°08'0 0.0
2014-Jul-27 04:30N 29°44' W 095°08'0 0.0
2014-Jul-27 03:33N 29°44' W 095°08'0 0.0
2014-Jul-27 02:33N 29°44' W 095°08'0 0.0
2014-Jul-27 01:33N 29°44' W 095°08'0 0.0
2014-Jul-27 00:33N 29°44' W 095°08'0 0.0
2014-Jul-26 23:33N 29°44' W 095°08'0 0.0
2014-Jul-26 22:33N 29°44' W 095°08'0 0.0
2014-Jul-26 21:33N 29°44' W 095°08'0 0.0
2014-Jul-26 20:33N 29°44' W 095°08'0 0.0
2014-Jul-26 19:24N 29°44' W 095°08'0 0.0
2014-Jul-26 18:30N 29°44' W 095°08'0 0.0
2014-Jul-26 17:33N 29°44' W 095°08'0 0.0
2014-Jul-26 16:33N 29°44' W 095°08'0 0.0
2014-Jul-26 15:33N 29°44' W 095°08'0 0.0
2014-Jul-26 14:33N 29°44' W 095°08'0 0.0
2014-Jul-26 13:33N 29°44' W 095°08'0 0.0
2014-Jul-26 12:24N 29°44' W 095°08'0 0.0
2014-Jul-26 11:30N 29°44' W 095°08'0 0.0
2014-Jul-26 10:33N 29°44' W 095°08'0 0.0
2014-Jul-26 09:30N 29°44' W 095°08'0 0.0
2014-Jul-26 08:32N 29°44' W 095°08'0 0.0
2014-Jul-26 07:29N 29°44' W 095°08'0 0.0
2014-Jul-26 06:32N 29°44' W 095°08'0 0.0
2014-Jul-26 05:33N 29°44' W 095°08'0 0.0
2014-Jul-26 04:33N 29°44' W 095°08'0 0.0
2014-Jul-26 03:33N 29°44' W 095°08'0 0.0
2014-Jul-26 02:27N 29°44' W 095°08'0 0.0
2014-Jul-26 01:32N 29°44' W 095°08'0 0.0
2014-Jul-26 00:32N 29°44' W 095°08'0 0.0
2014-Jul-25 23:33N 29°44' W 095°08'0 0.0
2014-Jul-25 22:27N 29°44' W 095°08'0 0.0
2014-Jul-25 21:32N 29°44' W 095°08'0 0.0
2014-Jul-25 20:27N 29°44' W 095°08'0 0.0
2014-Jul-25 19:33N 29°44' W 095°08'0 0.0
2014-Jul-25 18:30N 29°44' W 095°08'0 0.0
2014-Jul-25 17:30N 29°44' W 095°08'0 0.0
2014-Jul-25 16:29N 29°44' W 095°08'0 0.0
2014-Jul-25 15:33N 29°44' W 095°08'0 0.0
2014-Jul-25 14:32N 29°44' W 095°08'0 0.2
2014-Jul-25 13:33N 29°44' W 095°08'6 5.7
2014-Jul-25 12:33N 29°44' W 095°01'1111.3
2014-Jul-25 11:33N 29°34' W 094°55'1414.4
2014-Jul-25 10:33N 29°21' W 094°47'4 0.7
2014-Jul-25 05:32N 29°21' W 094°43'0 0.0
2014-Jul-25 04:32N 29°21' W 094°43'1 0.2
2014-Jul-25 00:22N 29°21' W 094°42'  
Track history (hours):
 
Tides and Currents Weather Stations Pressure Air Temp Water Temp Dewpoint Dewpoint Depression Visibility Wind Speed Wind Dir Waves Ship Positions

Andes

Last reported at 2014-Jul-27 11:31 UTC. Time now 2014-Jul-29 08:49 UTC.
Position N 29°21' W 094°44'.

; draft 11.7 m.

Type: Ship. MMSI: 209394000.

Date/timePositionNaut miles runAvg speedWind from/ knotsBaromVisibWave heightAir tempDewpointWater temp
2014-Jul-27 11:31N 29°21' W 094°44'8 8.8
2014-Jul-27 10:33N 29°27' W 094°51'1010.4
2014-Jul-27 09:33N 29°36' W 094°57'9 8.9
2014-Jul-27 08:33N 29°44' W 095°01'5 5.4
2014-Jul-27 07:33N 29°44' W 095°08'0 0.4
2014-Jul-27 06:33N 29°44' W 095°08'0 0.0
2014-Jul-27 05:33N 29°44' W 095°08'0 0.0
2014-Jul-27 04:30N 29°44' W 095°08'0 0.0
2014-Jul-27 03:33N 29°44' W 095°08'0 0.0
2014-Jul-27 02:33N 29°44' W 095°08'0 0.0
2014-Jul-27 01:33N 29°44' W 095°08'0 0.0
2014-Jul-27 00:33N 29°44' W 095°08'0 0.0
2014-Jul-26 23:33N 29°44' W 095°08'0 0.0
2014-Jul-26 22:33N 29°44' W 095°08'0 0.0
2014-Jul-26 21:33N 29°44' W 095°08'0 0.0
2014-Jul-26 20:33N 29°44' W 095°08'0 0.0
2014-Jul-26 19:24N 29°44' W 095°08'0 0.0
2014-Jul-26 18:30N 29°44' W 095°08'0 0.0
2014-Jul-26 17:33N 29°44' W 095°08'0 0.0
2014-Jul-26 16:33N 29°44' W 095°08'0 0.0
2014-Jul-26 15:33N 29°44' W 095°08'0 0.0
2014-Jul-26 14:33N 29°44' W 095°08'0 0.0
2014-Jul-26 13:33N 29°44' W 095°08'0 0.0
2014-Jul-26 12:24N 29°44' W 095°08'0 0.0
2014-Jul-26 11:30N 29°44' W 095°08'0 0.0
2014-Jul-26 10:33N 29°44' W 095°08'0 0.0
2014-Jul-26 09:30N 29°44' W 095°08'0 0.0
2014-Jul-26 08:32N 29°44' W 095°08'0 0.0
2014-Jul-26 07:29N 29°44' W 095°08'0 0.0
2014-Jul-26 06:32N 29°44' W 095°08'0 0.0
2014-Jul-26 05:33N 29°44' W 095°08'0 0.0
2014-Jul-26 04:33N 29°44' W 095°08'0 0.0
2014-Jul-26 03:33N 29°44' W 095°08'0 0.0
2014-Jul-26 02:27N 29°44' W 095°08'0 0.0
2014-Jul-26 01:32N 29°44' W 095°08'0 0.0
2014-Jul-26 00:32N 29°44' W 095°08'0 0.0
2014-Jul-25 23:33N 29°44' W 095°08'0 0.0
2014-Jul-25 22:27N 29°44' W 095°08'0 0.0
2014-Jul-25 21:32N 29°44' W 095°08'0 0.0
2014-Jul-25 20:27N 29°44' W 095°08'0 0.0
2014-Jul-25 19:33N 29°44' W 095°08'0 0.0
2014-Jul-25 18:30N 29°44' W 095°08'0 0.0
2014-Jul-25 17:30N 29°44' W 095°08'0 0.0
2014-Jul-25 16:29N 29°44' W 095°08'0 0.0
2014-Jul-25 15:33N 29°44' W 095°08'0 0.0
2014-Jul-25 14:32N 29°44' W 095°08'0 0.2
2014-Jul-25 13:33N 29°44' W 095°08'6 5.7
2014-Jul-25 12:33N 29°44' W 095°01'1111.3
2014-Jul-25 11:33N 29°34' W 094°55'1414.4
2014-Jul-25 10:33N 29°21' W 094°47'4 0.7
2014-Jul-25 05:32N 29°21' W 094°43'0 0.0
2014-Jul-25 04:32N 29°21' W 094°43'1 0.2
2014-Jul-25 00:22N 29°21' W 094°42'  

Dump ship's entire track history